首页
METAR-TAF:

METAR-TAF

机场 :

Vandenberg Airport

坦帕, 佛罗里达州, 美国

纬度: 28-00-50N, 经度: 082-20-43W, 海拔: 7米

当前天气观测

该预报发布于25分钟前的01:35 UTC
风速3节,风向西转西北
温度 22°C
湿度 88%
气压 1018 hPa
能見度: 16.1公里
阴天层高于1700英尺

METAR: KVDF 210135Z AUTO 30003KT 10SM OVC017 22/20 A3007 RMK AO2

时间: 21:00 (02:00 UTC)


TAF: 丢失

超过4000个机场的气象观测和天气预报(METAR&TAF报告)。

可查询的气象台以黄色和红色小点在地图上表示。

将鼠标移到小点上方,可查看气象台名称。

然后点击查看天气观测和预报。

如需切换地图:点击带黑十字的绿色按钮放大地图;点击带横线的绿色按钮缩小地图;或者点击绿色箭头查看邻近地区的地图。


METAR-TAF: